Time;durP1;ratioP1;P1;durP2;ratioP2;P2;SDS_P1;SDS_P2;PMS_P1;PMS_P2;Temp;Humidity;BMP_temperature;BMP_pressure;BME280_temperature;BME280_humidity;BME280_pressure;Samples;Min_cycle;Max_cycle;Signal;HPM_P1;HPM_P2
2021/09/23 00:02:16;;;;;;;;;16.75;14.50;;;;;14.88;71.17;102163.13;4986278;28;46210;-71
2021/09/23 00:04:43;;;;;;;;;15.75;14.25;;;;;14.85;71.30;102152.63;4989093;28;45717;-71
2021/09/23 00:07:09;;;;;;;;;16.75;15.25;;;;;14.82;71.08;102154.53;4990841;28;45525;-71
2021/09/23 00:09:36;;;;;;;;;16.00;13.50;;;;;14.77;70.97;102145.91;4982108;28;46201;-71
2021/09/23 00:12:01;;;;;;;;;14.50;13.50;;;;;14.76;71.35;102146.81;4978218;28;45486;-71
2021/09/23 00:14:26;;;;;;;;;14.00;12.00;;;;;14.69;71.38;102134.75;4982183;28;45327;-71
2021/09/23 00:16:52;;;;;;;;;20.75;13.75;;;;;14.69;71.81;102137.41;4981970;28;45490;-71
2021/09/23 00:19:18;;;;;;;;;18.25;13.75;;;;;14.66;71.36;102137.50;5008824;28;45838;-71
2021/09/23 00:21:43;;;;;;;;;14.50;13.25;;;;;14.59;71.88;102128.94;4995009;28;45581;-71
2021/09/23 00:24:09;;;;;;;;;15.50;13.75;;;;;14.57;71.76;102125.50;4982093;28;45299;-71
2021/09/23 00:26:34;;;;;;;;;16.50;15.00;;;;;14.54;71.80;102128.25;4982112;28;46168;-71
2021/09/23 00:29:00;;;;;;;;;18.00;14.25;;;;;14.51;71.86;102131.00;4982916;28;51885;-71
2021/09/23 00:31:25;;;;;;;;;14.75;12.00;;;;;14.50;72.23;102134.56;4989988;28;45550;-71
2021/09/23 00:33:50;;;;;;;;;16.00;13.00;;;;;14.44;71.99;102130.34;4993208;28;45289;-71
2021/09/23 00:36:16;;;;;;;;;13.00;12.25;;;;;14.45;72.49;102128.56;4990905;28;45692;-71
2021/09/23 00:38:41;;;;;;;;;18.50;13.75;;;;;14.43;72.12;102128.63;4989815;28;45521;-71
2021/09/23 00:41:07;;;;;;;;;21.50;16.25;;;;;14.42;72.13;102126.03;4986671;28;45318;-71
2021/09/23 00:43:32;;;;;;;;;15.50;13.75;;;;;14.40;72.33;102126.06;4995014;28;45495;-71
2021/09/23 00:45:58;;;;;;;;;19.25;14.00;;;;;14.36;72.45;102125.34;4993625;28;55853;-71
2021/09/23 00:48:23;;;;;;;;;15.75;14.25;;;;;14.32;72.25;102123.72;4993154;28;45379;-71
2021/09/23 00:50:50;;;;;;;;;17.25;15.00;;;;;14.32;72.35;102120.22;4993618;28;45194;-71
2021/09/23 00:53:19;;;;;;;;;18.00;15.75;;;;;14.30;72.46;102114.09;4990836;28;45455;-71
2021/09/23 00:55:44;;;;;;;;;18.25;13.50;;;;;14.27;72.61;102109.81;4984580;28;45602;-71
2021/09/23 00:58:09;;;;;;;;;15.25;15.25;;;;;14.19;72.62;102101.28;4996438;28;45618;-71
2021/09/23 01:00:35;;;;;;;;;16.00;13.50;;;;;14.22;72.84;102111.75;4987890;28;56329;-71
2021/09/23 01:03:00;;;;;;;;;15.50;14.75;;;;;14.10;72.86;102102.50;4993041;28;45431;-71
2021/09/23 01:05:26;;;;;;;;;16.00;13.50;;;;;14.17;72.95;102102.28;4990506;28;45703;-71
2021/09/23 01:07:51;;;;;;;;;12.75;11.25;;;;;14.16;73.17;102106.69;4987118;28;45443;-71
2021/09/23 01:10:19;;;;;;;;;19.50;16.50;;;;;14.10;72.67;102089.28;4993917;28;45620;-71
2021/09/23 01:12:44;;;;;;;;;16.25;15.00;;;;;14.02;73.18;102075.47;4995120;28;45541;-71
2021/09/23 01:15:11;;;;;;;;;21.25;16.75;;;;;14.12;73.05;102093.63;4991308;28;46158;-71
2021/09/23 01:17:37;;;;;;;;;16.00;14.00;;;;;14.01;73.54;102072.88;4990638;28;45375;-71
2021/09/23 01:20:05;;;;;;;;;15.25;15.00;;;;;14.09;73.10;102090.19;4989616;28;45581;-71
2021/09/23 01:22:30;;;;;;;;;19.50;13.50;;;;;14.06;72.97;102073.56;4981358;28;45658;-71
2021/09/23 01:24:56;;;;;;;;;17.00;13.50;;;;;14.05;73.10;102070.06;4981200;28;46369;-71
2021/09/23 01:27:22;;;;;;;;;14.75;14.50;;;;;14.03;72.96;102066.59;4993415;28;45726;-71
2021/09/23 01:29:48;;;;;;;;;15.75;13.50;;;;;14.01;73.56;102063.16;4984095;28;45591;-71
2021/09/23 01:32:13;;;;;;;;;13.50;13.50;;;;;13.87;73.09;102044.28;4987121;28;45428;-71
2021/09/23 01:34:42;;;;;;;;;19.00;16.00;;;;;13.94;73.34;102053.75;4992275;28;46413;-71
2021/09/23 01:37:09;;;;;;;;;20.50;14.50;;;;;13.91;73.64;102052.97;4986820;28;45544;-71
2021/09/23 01:39:35;;;;;;;;;18.50;13.50;;;;;13.88;73.62;102055.72;4986601;28;45671;-71
2021/09/23 01:42:01;;;;;;;;;16.50;13.25;;;;;13.82;73.74;102052.38;4994475;28;45433;-71
2021/09/23 01:44:27;;;;;;;;;17.25;13.75;;;;;13.82;73.79;102039.16;4986026;28;46020;-71
2021/09/23 01:46:52;;;;;;;;;16.50;14.00;;;;;13.81;73.98;102047.16;4984248;28;45568;-71
2021/09/23 01:49:18;;;;;;;;;21.75;14.00;;;;;13.77;73.88;102034.97;4994423;28;45301;-71
2021/09/23 01:51:43;;;;;;;;;16.50;16.50;;;;;13.75;73.98;102039.44;4994763;28;45412;-71
2021/09/23 01:54:09;;;;;;;;;18.25;14.00;;;;;13.74;73.93;102030.66;4991824;28;46141;-71
2021/09/23 01:56:34;;;;;;;;;13.50;13.50;;;;;13.74;73.57;102021.88;4991219;28;45591;-71
2021/09/23 01:59:00;;;;;;;;;17.25;13.25;;;;;13.74;73.48;102024.53;4989299;28;45351;-71
2021/09/23 02:01:25;;;;;;;;;17.75;15.25;;;;;13.70;74.25;102025.53;4991106;28;45482;-71
2021/09/23 02:03:50;;;;;;;;;18.25;17.25;;;;;13.66;74.03;102018.63;4994923;28;52215;-71
2021/09/23 02:06:16;;;;;;;;;18.50;15.50;;;;;13.68;74.22;102037.97;4981935;28;50723;-71
2021/09/23 02:08:41;;;;;;;;;16.75;15.25;;;;;13.66;74.16;102027.41;4983727;28;45490;-71
2021/09/23 02:11:07;;;;;;;;;20.50;15.25;;;;;13.63;74.28;102029.31;4987967;28;45561;-71
2021/09/23 02:13:33;;;;;;;;;16.25;11.00;;;;;13.63;74.48;102035.47;4991081;28;46312;-71
2021/09/23 02:15:59;;;;;;;;;21.50;18.00;;;;;13.62;73.99;102035.50;4981821;28;47841;-71
2021/09/23 02:18:25;;;;;;;;;20.00;15.25;;;;;13.49;73.82;102003.38;4992553;28;45459;-71
2021/09/23 02:20:50;;;;;;;;;16.50;12.25;;;;;13.57;74.16;102022.44;4991978;28;45259;-71
2021/09/23 02:23:16;;;;;;;;;14.00;13.75;;;;;13.54;74.00;102012.88;4991752;28;46337;-71
2021/09/23 02:25:42;;;;;;;;;19.00;14.50;;;;;13.54;74.04;102009.38;4991834;28;46054;-71
2021/09/23 02:28:07;;;;;;;;;16.25;14.00;;;;;13.53;73.89;102013.78;4991019;28;45316;-71
2021/09/23 02:30:33;;;;;;;;;18.00;16.25;;;;;13.48;74.36;102007.81;4990573;28;45351;-71
2021/09/23 02:32:58;;;;;;;;;12.50;12.00;;;;;13.46;74.27;102004.34;4991708;28;46454;-71
2021/09/23 02:35:24;;;;;;;;;17.25;14.25;;;;;13.44;74.32;102006.19;4991558;28;45348;-71
2021/09/23 02:37:49;;;;;;;;;18.00;14.50;;;;;13.43;74.55;102004.47;4991148;28;45461;-71
2021/09/23 02:40:15;;;;;;;;;12.75;11.00;;;;;13.43;74.43;101999.19;4991301;28;45412;-71
2021/09/23 02:42:42;;;;;;;;;16.00;12.00;;;;;13.40;74.56;101996.63;4993749;28;46292;-71
2021/09/23 02:45:09;;;;;;;;;18.75;16.75;;;;;13.30;74.57;101979.38;4991357;28;45442;-71
2021/09/23 02:47:34;;;;;;;;;17.25;14.00;;;;;13.38;74.71;101995.84;4984242;28;45696;-71
2021/09/23 02:49:59;;;;;;;;;20.50;17.00;;;;;13.34;74.93;101993.34;4982075;28;45665;-71
2021/09/23 02:52:25;;;;;;;;;19.75;15.75;;;;;13.33;74.57;101995.13;4991993;28;52410;-71
2021/09/23 02:54:50;;;;;;;;;19.75;15.50;;;;;13.34;74.98;102001.28;4994648;28;54640;-71
2021/09/23 02:57:16;;;;;;;;;17.50;16.75;;;;;13.32;75.05;102006.63;4990644;28;49185;-71
2021/09/23 02:59:41;;;;;;;;;20.00;16.00;;;;;13.31;74.93;101999.59;4989004;28;45444;-71
2021/09/23 03:02:07;;;;;;;;;24.25;20.25;;;;;13.30;75.14;101997.88;4990970;28;46275;-71
2021/09/23 03:04:32;;;;;;;;;18.50;15.75;;;;;13.24;75.34;101991.03;4998463;28;45366;-71
2021/09/23 03:06:57;;;;;;;;;17.50;14.75;;;;;13.29;75.11;101996.16;4986186;28;45893;-71
2021/09/23 03:09:23;;;;;;;;;19.75;18.00;;;;;13.25;75.25;101990.09;4979442;28;45518;-71
2021/09/23 03:11:49;;;;;;;;;19.50;17.75;;;;;13.27;75.14;101987.44;4990073;28;46577;-71
2021/09/23 03:14:14;;;;;;;;;20.75;17.25;;;;;13.24;74.82;101980.47;4991019;28;45670;-71
2021/09/23 03:16:39;;;;;;;;;18.00;15.00;;;;;13.24;74.86;101979.59;4991263;28;45434;-71
2021/09/23 03:19:04;;;;;;;;;22.00;16.75;;;;;13.19;75.20;101978.84;4984021;28;45653;-71
2021/09/23 03:21:30;;;;;;;;;16.00;13.00;;;;;13.21;75.23;101991.16;4991658;28;45581;-71
2021/09/23 03:23:55;;;;;;;;;22.50;16.75;;;;;13.20;75.28;101978.81;4983286;28;46849;-71
2021/09/23 03:26:20;;;;;;;;;17.25;15.50;;;;;13.17;75.26;101978.06;4986330;28;45494;-71
2021/09/23 03:28:46;;;;;;;;;19.75;15.75;;;;;13.17;75.25;101978.91;4990402;28;45475;-71
2021/09/23 03:31:12;;;;;;;;;17.25;15.25;;;;;13.15;75.40;101979.88;4993293;28;45446;-71
2021/09/23 03:33:38;;;;;;;;;20.25;15.00;;;;;13.11;75.77;101984.41;4992378;28;45888;-71
2021/09/23 03:36:03;;;;;;;;;20.25;19.25;;;;;13.11;75.35;101973.00;4981924;28;45574;-71
2021/09/23 03:38:29;;;;;;;;;22.00;17.75;;;;;13.10;75.46;101977.38;4982700;28;45495;-71
2021/09/23 03:40:54;;;;;;;;;18.25;17.50;;;;;13.09;75.52;101970.38;4989373;28;45385;-71
2021/09/23 03:43:20;;;;;;;;;19.50;14.00;;;;;13.09;75.31;101964.25;4990304;28;45561;-71
2021/09/23 03:45:49;;;;;;;;;18.00;17.25;;;;;13.10;75.52;101963.31;4993056;28;45400;-71
2021/09/23 03:48:14;;;;;;;;;24.00;17.25;;;;;13.07;75.44;101956.38;4990985;28;45307;-71
2021/09/23 03:50:39;;;;;;;;;15.50;14.00;;;;;13.07;75.43;101959.88;4989701;28;46422;-71
2021/09/23 03:53:05;;;;;;;;;17.00;13.75;;;;;13.06;75.81;101958.16;4989777;28;45593;-71
2021/09/23 03:55:30;;;;;;;;;19.00;15.50;;;;;13.05;75.84;101963.50;4990926;28;45523;-71
2021/09/23 03:57:56;;;;;;;;;20.25;15.25;;;;;12.99;75.95;101950.50;4991676;28;45475;-71
2021/09/23 04:00:23;;;;;;;;;18.00;16.75;;;;;12.99;75.93;101954.00;4978037;28;47271;-71
2021/09/23 04:02:49;;;;;;;;;18.25;14.25;;;;;12.99;75.67;101951.34;4988045;28;45407;-71
2021/09/23 04:05:15;;;;;;;;;15.75;14.00;;;;;12.97;76.48;101958.47;4989055;28;45253;-71
2021/09/23 04:07:40;;;;;;;;;21.75;17.00;;;;;12.93;75.90;101945.44;4989010;28;45462;-71
2021/09/23 04:10:07;;;;;;;;;17.00;15.25;;;;;12.97;76.03;101962.88;4978955;28;45554;-70
2021/09/23 04:12:33;;;;;;;;;20.00;18.25;;;;;12.94;76.14;101955.94;4989379;28;45383;-71
2021/09/23 04:14:59;;;;;;;;;17.25;16.50;;;;;12.95;76.37;101954.19;4985149;28;45582;-71
2021/09/23 04:17:24;;;;;;;;;18.50;12.75;;;;;12.95;76.00;101960.31;4983023;28;45931;-71
2021/09/23 04:19:50;;;;;;;;;15.50;14.00;;;;;12.89;76.21;101960.50;4985692;28;46549;-71
2021/09/23 04:22:15;;;;;;;;;22.50;17.00;;;;;12.93;76.07;101964.75;4984017;28;45405;-70
2021/09/23 04:24:40;;;;;;;;;21.00;17.50;;;;;12.92;76.61;101959.53;4992486;28;45559;-70
2021/09/23 04:27:06;;;;;;;;;21.75;18.00;;;;;12.91;76.25;101956.03;4989077;28;45385;-70
2021/09/23 04:29:31;;;;;;;;;20.00;17.25;;;;;12.91;76.39;101957.81;4988368;28;45498;-71
2021/09/23 04:31:57;;;;;;;;;20.00;16.00;;;;;12.92;76.12;101968.31;5001316;28;51541;-70
2021/09/23 04:34:22;;;;;;;;;18.00;17.75;;;;;12.83;76.30;101955.41;4990815;28;45361;-70
2021/09/23 04:36:48;;;;;;;;;17.50;15.00;;;;;12.90;76.31;101962.25;4991681;28;45372;-71
2021/09/23 04:39:16;;;;;;;;;18.00;14.75;;;;;12.91;76.50;101960.47;4988606;28;46035;-70
2021/09/23 04:41:41;;;;;;;;;5.00;5.00;;;;;12.92;76.89;101955.13;4989932;28;45429;-70
2021/09/23 04:44:06;;;;;;;;;14.00;14.00;;;;;12.85;76.59;101953.63;4990212;28;45368;-71
2021/09/23 04:46:32;;;;;;;;;22.00;18.50;;;;;12.90;76.41;101962.25;4988535;28;45436;-70
2021/09/23 04:48:57;;;;;;;;;19.00;13.75;;;;;12.89;76.52;101964.91;4993334;28;46092;-70
2021/09/23 04:51:24;;;;;;;;;19.50;18.25;;;;;12.87;76.45;101966.75;4989692;28;45440;-70
2021/09/23 04:53:50;;;;;;;;;18.75;15.75;;;;;12.86;76.34;101975.56;4989555;28;45992;-70
2021/09/23 04:56:15;;;;;;;;;17.25;13.75;;;;;12.81;76.40;101962.53;4985907;28;45403;-72
2021/09/23 04:58:41;;;;;;;;;20.00;16.00;;;;;12.72;76.76;101954.91;4987113;28;45750;-70
2021/09/23 05:01:06;;;;;;;;;25.00;19.75;;;;;12.79;76.83;101965.22;4980446;28;45551;-70
2021/09/23 05:03:31;;;;;;;;;19.50;14.50;;;;;12.80;76.90;101969.59;4996201;28;45420;-70
2021/09/23 05:05:57;;;;;;;;;22.00;21.75;;;;;12.83;76.97;101970.38;4989242;28;45528;-70
2021/09/23 05:08:25;;;;;;;;;21.25;17.75;;;;;12.83;76.92;101975.66;4999573;28;47019;-71
2021/09/23 05:10:51;;;;;;;;;26.00;19.75;;;;;12.79;76.67;101974.94;4988318;28;45482;-71
2021/09/23 05:13:17;;;;;;;;;28.50;24.00;;;;;12.80;76.91;101981.91;4991187;28;45553;-71
2021/09/23 05:15:42;;;;;;;;;18.00;15.25;;;;;12.80;76.58;101987.19;4977669;28;45365;-71
2021/09/23 05:18:08;;;;;;;;;22.25;19.25;;;;;12.78;77.09;101992.50;4992413;28;46198;-71
2021/09/23 05:20:34;;;;;;;;;22.25;18.25;;;;;12.75;77.38;101995.25;4982065;28;45930;-71
2021/09/23 05:22:59;;;;;;;;;25.25;19.50;;;;;12.75;77.09;101997.88;4980377;28;45516;-71
2021/09/23 05:25:27;;;;;;;;;21.25;20.00;;;;;12.72;76.83;101997.97;4992031;28;45524;-71
2021/09/23 05:27:52;;;;;;;;;26.00;20.00;;;;;12.71;77.30;102001.53;4976266;28;46340;-70
2021/09/23 05:30:18;;;;;;;;;20.00;16.50;;;;;12.71;77.23;101998.03;4979363;28;45443;-70
2021/09/23 05:32:43;;;;;;;;;19.75;16.75;;;;;12.70;77.22;102006.88;4987585;28;45457;-70
2021/09/23 05:35:10;;;;;;;;;21.25;19.25;;;;;12.70;76.93;102004.22;4996072;28;45408;-71
2021/09/23 05:37:35;;;;;;;;;22.25;18.75;;;;;12.72;77.35;101994.47;4990976;28;45581;-70
2021/09/23 05:40:00;;;;;;;;;20.00;19.50;;;;;12.71;77.20;102004.16;4996753;28;45885;-70
2021/09/23 05:42:26;;;;;;;;;20.75;18.25;;;;;12.72;77.05;102010.31;4992246;28;45265;-71
2021/09/23 05:44:51;;;;;;;;;23.25;20.50;;;;;12.71;77.26;102009.44;4989537;28;52542;-70
2021/09/23 05:47:17;;;;;;;;;23.75;18.00;;;;;12.63;77.40;101995.63;4988485;28;45810;-70
2021/09/23 05:49:42;;;;;;;;;24.75;18.25;;;;;12.74;77.42;102016.41;4987212;28;45460;-70
2021/09/23 05:52:08;;;;;;;;;17.50;17.25;;;;;12.73;77.35;102012.88;4994512;28;46067;-70
2021/09/23 05:54:33;;;;;;;;;22.50;17.75;;;;;12.74;77.15;102013.78;4991606;28;45390;-70
2021/09/23 05:56:58;;;;;;;;;20.25;16.50;;;;;12.77;77.34;102017.16;4991853;28;46234;-70
2021/09/23 05:59:26;;;;;;;;;21.00;20.50;;;;;12.79;77.41;102012.72;4987770;28;45437;-70
2021/09/23 06:01:54;;;;;;;;;24.50;18.75;;;;;12.78;77.64;102004.81;4992225;28;45324;-70
2021/09/23 06:04:20;;;;;;;;;23.75;19.00;;;;;12.85;77.16;102018.72;4996077;28;45380;-70
2021/09/23 06:06:45;;;;;;;;;21.50;18.50;;;;;12.92;77.40;102025.50;4997103;28;45761;-71
2021/09/23 06:09:10;;;;;;;;;16.75;16.50;;;;;12.92;77.41;102018.44;4990952;28;45615;-71
2021/09/23 06:11:37;;;;;;;;;23.75;18.50;;;;;12.98;77.00;102022.66;4991056;28;45428;-70
2021/09/23 06:14:03;;;;;;;;;19.00;17.25;;;;;13.01;77.12;102026.06;4994020;28;45511;-70
2021/09/23 06:16:28;;;;;;;;;24.00;21.00;;;;;13.07;77.19;102028.50;4996491;28;46714;-71
2021/09/23 06:18:53;;;;;;;;;23.00;19.00;;;;;13.13;77.08;102027.44;4996533;28;45309;-71
2021/09/23 06:21:19;;;;;;;;;25.25;18.75;;;;;13.15;77.27;102033.53;4996710;28;45645;-71
2021/09/23 06:23:44;;;;;;;;;23.75;18.75;;;;;13.26;77.29;102027.94;4996095;28;45668;-71
2021/09/23 06:26:09;;;;;;;;;28.25;20.00;;;;;13.34;77.35;102025.03;4996330;28;45451;-71
2021/09/23 06:28:35;;;;;;;;;22.25;18.00;;;;;13.38;77.04;102032.81;4995276;28;45781;-71
2021/09/23 06:31:02;;;;;;;;;21.00;19.50;;;;;13.44;77.24;102029.94;4993661;28;45307;-71
2021/09/23 06:33:27;;;;;;;;;26.25;21.00;;;;;13.57;77.24;102040.94;4978954;28;45516;-74
2021/09/23 06:35:53;;;;;;;;;25.50;21.25;;;;;13.65;76.99;102045.97;4994904;28;45912;-72
2021/09/23 06:38:18;;;;;;;;;24.25;19.50;;;;;13.73;77.16;102047.44;4995826;28;45514;-72
2021/09/23 06:40:43;;;;;;;;;26.50;24.50;;;;;13.76;77.00;102044.66;4985232;28;45364;-72
2021/09/23 06:43:09;;;;;;;;;35.50;23.50;;;;;13.78;76.72;102029.66;4995613;28;49569;-72
2021/09/23 06:45:34;;;;;;;;;20.50;20.25;;;;;13.98;76.93;102049.19;4995778;28;47081;-71
2021/09/23 06:47:59;;;;;;;;;27.75;20.75;;;;;14.07;76.41;102047.06;4991740;28;45415;-71
2021/09/23 06:50:25;;;;;;;;;28.25;24.50;;;;;14.13;76.07;102048.63;4989603;28;45449;-72
2021/09/23 06:52:50;;;;;;;;;25.50;22.75;;;;;14.15;76.18;102038.88;4982735;28;45459;-72
2021/09/23 06:55:16;;;;;;;;;26.50;21.50;;;;;14.35;76.06;102054.88;4993639;28;45451;-72
2021/09/23 06:57:41;;;;;;;;;28.75;21.50;;;;;14.45;75.80;102050.06;4993158;28;45241;-73
2021/09/23 07:00:07;;;;;;;;;31.75;26.25;;;;;14.55;75.43;102056.75;4992260;28;45250;-72
2021/09/23 07:02:33;;;;;;;;;30.50;23.00;;;;;14.66;75.41;102047.53;4987857;28;45744;-71
2021/09/23 07:04:58;;;;;;;;;25.50;21.50;;;;;14.78;75.14;102047.09;4981523;28;46480;-72
2021/09/23 07:07:24;;;;;;;;;25.25;21.25;;;;;14.90;75.36;102048.38;4983622;28;45559;-72
2021/09/23 07:09:49;;;;;;;;;25.00;21.25;;;;;15.04;74.30;102046.91;4979721;28;45487;-72
2021/09/23 07:12:14;;;;;;;;;25.00;22.25;;;;;15.19;74.27;102041.88;4986759;28;45641;-71
2021/09/23 07:14:40;;;;;;;;;25.75;20.75;;;;;15.35;74.44;102035.91;4987894;28;46558;-71
2021/09/23 07:17:05;;;;;;;;;24.50;22.25;;;;;15.53;73.87;102036.03;4987291;28;45557;-71
2021/09/23 07:19:31;;;;;;;;;25.25;22.25;;;;;16.04;73.14;102048.81;4991640;28;45918;-71
2021/09/23 07:21:57;;;;;;;;;25.00;22.00;;;;;16.47;71.65;102038.03;4995601;28;45510;-71
2021/09/23 07:24:24;;;;;;;;;33.50;23.75;;;;;16.87;71.41;102029.94;4977962;28;46414;-71
2021/09/23 07:26:50;;;;;;;;;32.25;21.25;;;;;17.04;70.56;102029.09;4979484;28;45423;-71
2021/09/23 07:29:16;;;;;;;;;30.25;23.50;;;;;17.24;70.27;102028.09;4985373;28;45340;-71
2021/09/23 07:31:46;;;;;;;;;27.50;23.25;;;;;17.34;69.78;102029.38;4990983;28;45452;-71
2021/09/23 07:34:11;;;;;;;;;22.00;20.50;;;;;17.39;69.01;102029.13;4987631;28;46749;-71
2021/09/23 07:36:37;;;;;;;;;26.00;24.75;;;;;17.46;68.48;102030.53;4992159;28;45316;-72
2021/09/23 07:39:06;;;;;;;;;19.75;19.25;;;;;17.64;68.55;102024.25;4991292;28;45366;-71
2021/09/23 07:41:32;;;;;;;;;24.00;22.00;;;;;18.16;68.29;102021.50;4990524;28;45270;-71
2021/09/23 07:43:58;;;;;;;;;27.50;23.50;;;;;18.64;66.92;102019.75;4986808;28;46517;-71
2021/09/23 07:46:23;;;;;;;;;24.75;24.25;;;;;19.41;66.26;102010.84;4992289;28;45299;-72
2021/09/23 07:48:53;;;;;;;;;28.75;24.00;;;;;21.00;64.98;102016.88;4986207;28;45504;-72
2021/09/23 07:51:19;;;;;;;;;23.75;22.25;;;;;22.62;61.95;102010.88;4991053;28;45379;-72
2021/09/23 07:53:44;;;;;;;;;26.75;24.75;;;;;22.89;59.18;102007.16;4982602;28;46644;-71
2021/09/23 07:56:09;;;;;;;;;29.75;26.00;;;;;23.20;58.99;102011.06;4977564;28;51767;-72
2021/09/23 07:58:35;;;;;;;;;25.00;22.75;;;;;23.85;57.39;102012.31;4978942;28;45434;-72
2021/09/23 08:01:00;;;;;;;;;25.50;21.75;;;;;24.28;55.47;101990.09;4994970;28;45319;-72
2021/09/23 08:03:26;;;;;;;;;27.50;24.50;;;;;24.52;54.81;102015.00;4986294;28;46314;-72
2021/09/23 08:05:51;;;;;;;;;25.00;20.00;;;;;24.37;53.89;102013.56;4989768;28;45544;-72
2021/09/23 08:08:16;;;;;;;;;23.75;20.25;;;;;24.41;53.85;102015.00;4985712;28;45480;-72
2021/09/23 08:10:42;;;;;;;;;20.75;19.00;;;;;24.94;53.51;102017.78;4979569;28;53415;-71
2021/09/23 08:13:07;;;;;;;;;20.25;19.75;;;;;26.18;52.47;102015.22;4992540;28;46464;-72
2021/09/23 08:15:32;;;;;;;;;21.50;21.50;;;;;27.93;49.91;102013.44;5006155;28;45393;-72
2021/09/23 08:17:58;;;;;;;;;22.00;21.00;;;;;29.11;48.21;102011.59;4990470;28;45854;-72
2021/09/23 08:20:23;;;;;;;;;23.00;20.25;;;;;30.40;47.23;102000.88;4989766;28;45508;-72
2021/09/23 08:22:49;;;;;;;;;20.50;20.00;;;;;31.84;45.20;102009.41;4989881;28;46391;-72
2021/09/23 08:25:15;;;;;;;;;19.00;18.00;;;;;32.47;41.96;102017.50;4992424;28;45633;-72
2021/09/23 08:27:41;;;;;;;;;20.50;18.50;;;;;32.64;41.39;102018.25;4992528;28;45447;-72
2021/09/23 08:30:08;;;;;;;;;22.50;16.50;;;;;33.53;40.87;102010.41;4990483;28;45613;-72
2021/09/23 08:32:33;;;;;;;;;18.25;17.25;;;;;34.78;38.89;102010.38;4989762;28;46343;-72
2021/09/23 08:34:58;;;;;;;;;14.75;13.75;;;;;35.09;37.31;101995.56;4989885;28;45369;-72
2021/09/23 08:37:24;;;;;;;;;19.50;18.00;;;;;36.55;36.79;102002.72;4991277;28;45526;-72
2021/09/23 08:39:49;;;;;;;;;16.25;16.25;;;;;38.24;34.93;102010.38;4993038;28;45369;-72
2021/09/23 08:42:15;;;;;;;;;8.00;6.00;;;;;39.69;32.74;102004.91;4990885;28;46635;-72
2021/09/23 08:44:42;;;;;;;;;14.25;14.25;;;;;40.80;32.68;102000.88;4989472;28;45179;-72
2021/09/23 08:47:07;;;;;;;;;13.50;12.25;;;;;41.67;30.46;102001.06;4989873;28;45314;-70
2021/09/23 08:49:32;;;;;;;;;15.25;15.25;;;;;42.41;28.91;102010.34;4989329;28;45511;-72
2021/09/23 08:51:58;;;;;;;;;15.50;13.25;;;;;42.80;29.25;102007.72;4993426;28;46506;-70
2021/09/23 08:54:23;;;;;;;;;16.25;15.00;;;;;43.08;27.46;102015.16;4989988;28;45507;-70
2021/09/23 08:56:48;;;;;;;;;14.25;13.25;;;;;43.54;27.05;102023.31;4989690;28;45261;-70
2021/09/23 08:59:14;;;;;;;;;18.25;15.50;;;;;44.18;26.12;102006.97;4989387;28;53074;-70
2021/09/23 09:01:50;;;;;;;;;13.75;13.25;;;;;44.82;25.48;102009.88;4988894;28;45498;-70
2021/09/23 09:04:16;;;;;;;;;16.75;15.50;;;;;45.24;24.36;102018.25;4991725;28;45700;-70
2021/09/23 09:06:56;;;;;;;;;13.00;12.25;;;;;45.70;24.72;102021.31;4993378;28;45388;-70
2021/09/23 09:09:22;;;;;;;;;14.25;10.25;;;;;46.09;23.83;102026.47;4997429;28;45329;-72
2021/09/23 09:11:51;;;;;;;;;15.75;14.00;;;;;46.48;22.99;102021.31;4992712;28;46199;-70
2021/09/23 09:14:23;;;;;;;;;19.25;15.50;;;;;46.88;22.42;102025.22;4992782;28;45337;-70
2021/09/23 09:17:13;;;;;;;;;12.75;11.75;;;;;47.08;21.54;102027.19;4992999;28;45245;-70
2021/09/23 09:19:57;;;;;;;;;11.75;10.75;;;;;47.41;21.29;102020.19;4992677;28;45563;-70
2021/09/23 09:22:25;;;;;;;;;12.25;9.50;;;;;47.62;21.41;102023.75;4993527;28;47347;-69
2021/09/23 09:25:08;;;;;;;;;14.75;13.00;;;;;47.95;20.24;102022.22;4996255;28;45705;-70
2021/09/23 09:27:33;;;;;;;;;13.50;11.25;;;;;48.14;20.04;102022.44;4994179;28;45403;-70
2021/09/23 09:30:04;;;;;;;;;13.00;11.25;;;;;47.72;21.24;102026.53;4993007;28;45907;-70
2021/09/23 09:32:51;;;;;;;;;10.50;10.50;;;;;46.91;20.10;102018.31;4983026;28;45811;-70
2021/09/23 09:35:20;;;;;;;;;13.00;12.50;;;;;46.41;20.24;102019.88;4991791;28;45457;-70
2021/09/23 09:37:51;;;;;;;;;13.75;12.00;;;;;45.37;20.62;102019.75;4992520;28;45360;-70
2021/09/23 09:40:23;;;;;;;;;13.50;11.50;;;;;44.20;20.94;102015.84;4994716;28;45428;-70
2021/09/23 09:42:51;;;;;;;;;9.00;9.00;;;;;43.43;21.66;102017.63;4995577;28;45559;-70
2021/09/23 09:45:28;;;;;;;;;14.75;13.50;;;;;42.68;22.60;102005.06;4992942;28;45410;-69
2021/09/23 09:47:55;;;;;;;;;16.00;11.25;;;;;41.44;22.44;102002.75;4992400;28;45407;-70
2021/09/23 09:50:24;;;;;;;;;12.75;10.50;;;;;40.76;23.35;102003.25;4992239;28;45743;-70
2021/09/23 09:52:57;;;;;;;;;15.50;14.25;;;;;40.35;23.58;102004.91;4991973;28;46186;-70
2021/09/23 09:55:25;;;;;;;;;14.00;13.75;;;;;39.95;23.19;102001.81;4993680;28;45508;-70
2021/09/23 09:57:52;;;;;;;;;16.75;15.00;;;;;39.53;24.29;102001.66;4995464;28;45441;-70
2021/09/23 10:00:18;;;;;;;;;16.25;13.75;;;;;39.06;24.08;101995.72;4991158;28;45494;-70
2021/09/23 10:02:44;;;;;;;;;11.75;11.50;;;;;38.83;24.08;101989.97;4990754;28;46436;-70
2021/09/23 10:05:11;;;;;;;;;13.00;12.75;;;;;38.66;24.23;102000.66;4991320;28;45479;-69
2021/09/23 10:07:39;;;;;;;;;13.50;12.00;;;;;38.30;24.30;101993.91;4992189;28;45412;-69
2021/09/23 10:10:05;;;;;;;;;13.50;11.50;;;;;38.15;24.85;101993.31;4996044;28;45396;-70
2021/09/23 10:12:31;;;;;;;;;16.75;15.75;;;;;38.18;24.71;101983.81;4992891;28;45447;-70
2021/09/23 10:14:59;;;;;;;;;13.00;11.00;;;;;38.23;25.00;101981.25;4984941;28;45685;-70
2021/09/23 10:17:29;;;;;;;;;14.25;11.50;;;;;38.36;24.72;101982.03;4987680;28;45598;-70
2021/09/23 10:19:56;;;;;;;;;10.25;10.25;;;;;38.54;25.02;101981.28;4991323;28;45550;-70
2021/09/23 10:22:21;;;;;;;;;14.00;13.25;;;;;38.61;25.39;101987.56;4993579;28;46423;-70
2021/09/23 10:24:48;;;;;;;;;15.25;13.50;;;;;38.29;24.51;101986.72;4994721;28;45800;-70
2021/09/23 10:30:00;;;;;;;;;14.75;13.25;;;;;37.09;25.24;101977.94;4989903;28;46059;-70
2021/09/23 10:32:26;;;;;;;;;14.00;11.75;;;;;36.58;25.56;101981.22;4987913;28;45495;-70
2021/09/23 10:34:52;;;;;;;;;15.75;15.50;;;;;36.04;26.11;101984.00;4991033;28;45336;-70
2021/09/23 10:37:18;;;;;;;;;14.50;11.75;;;;;35.49;26.34;101972.94;4993865;28;45565;-70
2021/09/23 10:39:45;;;;;;;;;12.50;11.00;;;;;35.06;27.27;101974.91;4991923;28;45418;-70
2021/09/23 10:42:20;;;;;;;;;14.00;11.00;;;;;34.68;27.21;101975.19;4991235;28;45465;-70
2021/09/23 10:44:47;;;;;;;;;17.00;12.75;;;;;34.36;27.37;101962.84;4991429;28;45618;-70
2021/09/23 10:47:12;;;;;;;;;14.75;13.25;;;;;33.85;27.90;101948.34;4991445;28;45464;-69
2021/09/23 10:49:37;;;;;;;;;13.50;10.50;;;;;33.51;28.14;101957.94;4990949;28;45477;-70
2021/09/23 10:52:03;;;;;;;;;14.75;10.00;;;;;33.31;28.28;101951.31;4995289;28;46495;-70
2021/09/23 10:54:29;;;;;;;;;12.00;11.25;;;;;33.08;28.67;101957.69;4978263;28;45400;-70
2021/09/23 10:56:54;;;;;;;;;13.75;12.00;;;;;32.83;28.79;101939.81;4991090;28;45553;-69
2021/09/23 10:59:20;;;;;;;;;20.00;15.25;;;;;32.63;29.45;101948.50;4991229;28;45463;-69
2021/09/23 11:01:46;;;;;;;;;15.00;13.75;;;;;32.43;29.69;101939.97;4991358;28;46416;-72
2021/09/23 11:04:13;;;;;;;;;13.00;12.25;;;;;32.27;29.66;101936.50;4993560;28;45550;-72
2021/09/23 11:06:41;;;;;;;;;14.50;14.25;;;;;32.14;30.27;101931.63;4993193;28;45462;-72
2021/09/23 11:09:26;;;;;;;;;12.00;10.50;;;;;32.02;29.98;101923.03;4991850;28;45424;-72